createdAt,value
2022-09-02T00:02:00.379Z,100420.06
2022-09-02T00:04:53.057Z,100419.52
2022-09-02T00:07:45.272Z,100421.95
2022-09-02T00:10:39.799Z,100428.14
2022-09-02T00:13:32.590Z,100420.56
2022-09-02T00:16:25.779Z,100425.66
2022-09-02T00:19:19.062Z,100424.57
2022-09-02T00:22:12.240Z,100420.47
2022-09-02T00:25:04.626Z,100421.00
2022-09-02T00:27:56.920Z,100426.38
2022-09-02T00:30:49.351Z,100420.95
2022-09-02T00:33:42.226Z,100422.55
2022-09-02T00:36:34.589Z,100424.70
2022-09-02T00:39:27.706Z,100436.84
2022-09-02T00:42:20.214Z,100441.94
2022-09-02T00:45:12.460Z,100449.24
2022-09-02T00:48:06.758Z,100461.36
2022-09-02T00:50:58.993Z,100452.16
2022-09-02T00:53:52.728Z,100460.53
2022-09-02T00:56:46.742Z,100460.22
2022-09-02T00:59:46.737Z,100465.89
2022-09-02T01:02:42.333Z,100463.44
2022-09-02T01:05:41.873Z,100467.20
2022-09-02T01:08:39.492Z,100456.69
2022-09-02T01:11:39.124Z,100459.63
2022-09-02T01:14:31.407Z,100460.70
2022-09-02T01:17:25.393Z,100458.01
2022-09-02T01:20:21.415Z,100459.35
2022-09-02T01:23:19.360Z,100461.50
2022-09-02T01:26:12.092Z,100462.81
2022-09-02T01:29:04.535Z,100460.39
2022-09-02T01:31:57.402Z,100452.54
2022-09-02T01:34:50.511Z,100454.13
2022-09-02T01:37:43.122Z,100459.80
2022-09-02T01:40:47.785Z,100452.22
2022-09-02T01:43:40.055Z,100457.30
2022-09-02T01:46:32.933Z,100458.38
2022-09-02T01:49:25.473Z,100464.25
2022-09-02T01:52:21.479Z,100460.20
2022-09-02T01:55:14.501Z,100458.58
2022-09-02T01:58:07.077Z,100456.12
2022-09-02T02:00:59.759Z,100471.50
2022-09-02T02:03:53.190Z,100467.98
2022-09-02T02:06:48.825Z,100458.27
2022-09-02T02:09:44.934Z,100455.33
2022-09-02T02:12:40.884Z,100446.68
2022-09-02T02:18:24.733Z,100447.99
2022-09-02T02:21:16.750Z,100445.30
2022-09-02T02:24:10.688Z,100441.80
2022-09-02T02:27:02.877Z,100440.42
2022-09-02T02:29:55.149Z,100436.61
2022-09-02T02:32:49.169Z,100451.67
2022-09-02T02:35:43.500Z,100452.74
2022-09-02T02:38:36.635Z,100453.25
2022-09-02T02:41:28.891Z,100460.55
2022-09-02T02:44:22.428Z,100454.59
2022-09-02T02:47:16.455Z,100455.66
2022-09-02T02:50:12.445Z,100453.20
2022-09-02T02:53:06.002Z,100461.56
2022-09-02T02:55:58.228Z,100458.04
2022-09-02T02:58:50.878Z,100457.75
2022-09-02T03:01:43.478Z,100458.31
2022-09-02T03:04:36.245Z,100461.25
2022-09-02T03:07:29.631Z,100454.23
2022-09-02T03:10:23.600Z,100456.37
2022-09-02T03:13:16.077Z,100455.01
2022-09-02T03:16:10.081Z,100458.72
2022-09-02T03:19:03.126Z,100456.03
2022-09-02T03:21:56.046Z,100464.62
2022-09-02T03:24:48.803Z,100465.69
2022-09-02T03:27:46.313Z,100473.21
2022-09-02T03:30:40.696Z,100465.13
2022-09-02T03:33:32.979Z,100480.47
2022-09-02T03:36:24.985Z,100478.84
2022-09-02T03:39:17.540Z,100486.92
2022-09-02T03:42:19.843Z,100490.69
2022-09-02T03:45:16.208Z,100486.87
2022-09-02T03:48:09.215Z,100496.02
2022-09-02T03:51:03.333Z,100496.02
2022-09-02T03:53:56.626Z,100504.93
2022-09-02T03:56:49.237Z,100512.45
2022-09-02T03:59:39.593Z,100507.30
2022-09-02T04:02:31.931Z,100512.95
2022-09-02T04:05:26.729Z,100503.25
2022-09-02T04:08:21.015Z,100515.09
2022-09-02T04:11:17.966Z,100521.54
2022-09-02T04:14:12.867Z,100523.41
2022-09-02T04:17:05.657Z,100526.93
2022-09-02T04:19:59.670Z,100518.84
2022-09-02T04:22:53.209Z,100521.54
2022-09-02T04:25:45.906Z,100523.67
2022-09-02T04:28:40.602Z,100524.17
2022-09-02T04:31:33.129Z,100522.22
2022-09-02T04:34:26.096Z,100528.37
2022-09-02T04:37:18.402Z,100528.30
2022-09-02T04:40:13.063Z,100527.38
2022-09-02T04:43:06.397Z,100518.67
2022-09-02T04:45:58.761Z,100522.13
2022-09-02T04:48:51.726Z,100528.50
2022-09-02T04:51:44.540Z,100529.49
2022-09-02T04:54:37.390Z,100522.14
2022-09-02T04:57:30.940Z,100525.10
2022-09-02T05:00:24.933Z,100528.29
2022-09-02T05:03:19.374Z,100532.84
2022-09-02T05:06:15.935Z,100534.97
2022-09-02T05:09:09.401Z,100538.95
2022-09-02T05:12:04.704Z,100541.64
2022-09-02T05:15:08.780Z,100544.33
2022-09-02T05:18:02.192Z,100537.32
2022-09-02T05:20:58.172Z,100549.97
2022-09-02T05:23:51.844Z,100543.53
2022-09-02T05:26:47.939Z,100547.28
2022-09-02T05:29:45.143Z,100540.84
2022-09-02T05:32:38.861Z,100547.86
2022-09-02T05:35:31.303Z,100550.05
2022-09-02T05:38:27.256Z,100543.61
2022-09-02T05:41:23.630Z,100547.92
2022-09-02T05:44:17.670Z,100540.42
2022-09-02T05:47:10.733Z,100546.14
2022-09-02T05:50:03.203Z,100549.40
2022-09-02T05:52:58.868Z,100545.95
2022-09-02T05:55:52.626Z,100550.04
2022-09-02T05:58:45.323Z,100549.55
2022-09-02T06:01:38.870Z,100543.66
2022-09-02T06:04:32.421Z,100543.97
2022-09-02T06:07:26.651Z,100541.34
2022-09-02T06:10:20.057Z,100539.22
2022-09-02T06:13:12.664Z,100542.00
2022-09-02T06:16:04.988Z,100544.77
2022-09-02T06:18:58.203Z,100543.77
2022-09-02T06:21:52.041Z,100539.50
2022-09-02T06:24:45.632Z,100544.95
2022-09-02T06:27:43.622Z,100552.30
2022-09-02T06:30:40.103Z,100549.41
2022-09-02T06:33:33.107Z,100561.63
2022-09-02T06:36:28.522Z,100559.56
2022-09-02T06:39:26.385Z,100557.72
2022-09-02T06:42:21.045Z,100559.41
2022-09-02T06:45:28.003Z,100560.29
2022-09-02T06:48:21.326Z,100563.84
2022-09-02T06:51:19.470Z,100563.33
2022-09-02T06:54:15.944Z,100563.38
2022-09-02T06:57:09.089Z,100565.89
2022-09-02T07:00:02.276Z,100565.70
2022-09-02T07:03:10.569Z,100557.42
2022-09-02T07:06:11.028Z,100571.52
2022-09-02T07:09:09.930Z,100566.44
2022-09-02T07:12:06.335Z,100571.89
2022-09-02T07:15:01.983Z,100566.29
2022-09-02T07:17:58.204Z,100566.33
2022-09-02T07:20:58.504Z,100569.06
2022-09-02T07:23:51.141Z,100580.98
2022-09-02T07:26:47.009Z,100578.31
2022-09-02T07:29:41.707Z,100576.97
2022-09-02T07:32:38.195Z,100586.17
2022-09-02T07:35:32.076Z,100580.81
2022-09-02T07:38:24.719Z,100578.98
2022-09-02T07:41:18.108Z,100587.91
2022-09-02T07:44:12.024Z,100588.22
2022-09-02T07:47:04.610Z,100590.41
2022-09-02T07:53:07.503Z,100592.34
2022-09-02T07:56:02.208Z,100589.94
2022-09-02T07:58:54.357Z,100583.19
2022-09-02T08:01:49.402Z,100584.30
2022-09-02T08:04:43.961Z,100586.47
2022-09-02T08:07:36.786Z,100588.65
2022-09-02T08:10:29.839Z,100575.17
2022-09-02T08:13:22.953Z,100579.80
2022-09-02T08:16:20.418Z,100586.30
2022-09-02T08:19:15.856Z,100590.66
2022-09-02T08:22:08.707Z,100583.41
2022-09-02T08:25:01.981Z,100586.92
2022-09-02T08:27:52.728Z,100583.99
2022-09-02T08:30:45.338Z,100584.02
2022-09-02T08:33:38.685Z,100581.58
2022-09-02T08:36:32.151Z,100587.00
2022-09-02T08:42:26.132Z,100586.48
2022-09-02T08:45:24.134Z,100580.83
2022-09-02T08:48:22.338Z,100578.71
2022-09-02T08:51:23.550Z,100574.11
2022-09-02T08:54:24.796Z,100570.34
2022-09-02T08:57:16.928Z,100564.40
2022-09-02T09:00:11.562Z,100569.02
2022-09-02T09:03:10.927Z,100570.38
2022-09-02T09:06:11.370Z,100569.58
2022-09-02T09:09:16.087Z,100570.37
2022-09-02T09:12:14.464Z,100568.50
2022-09-02T09:15:12.826Z,100574.97
2022-09-02T09:18:08.833Z,100578.99
2022-09-02T09:21:00.745Z,100573.83
2022-09-02T09:23:55.434Z,100570.52
2022-09-02T09:26:49.475Z,100563.70
2022-09-02T09:29:41.739Z,100566.16
2022-09-02T09:32:38.561Z,100553.34
2022-09-02T09:35:48.636Z,100563.91
2022-09-02T09:38:40.441Z,100548.41
2022-09-02T09:41:33.927Z,100543.77
2022-09-02T09:44:49.490Z,100542.09
2022-09-02T09:47:42.995Z,100543.38
2022-09-02T09:50:35.402Z,100544.13
2022-09-02T09:53:30.991Z,100533.20
2022-09-02T09:56:37.381Z,100535.59
2022-09-02T09:59:42.595Z,100533.59
2022-09-02T10:02:36.643Z,100536.26
2022-09-02T10:05:40.555Z,100538.13
2022-09-02T10:08:33.548Z,100548.95
2022-09-02T10:11:28.746Z,100535.32
2022-09-02T10:14:21.317Z,100545.09
2022-09-02T10:17:28.449Z,100542.37
2022-09-02T10:20:27.196Z,100538.56
2022-09-02T10:23:34.175Z,100537.16
2022-09-02T10:26:38.499Z,100534.45
2022-09-02T10:32:53.900Z,100530.72
2022-09-02T10:35:50.396Z,100514.37
2022-09-02T10:38:45.351Z,100515.63
2022-09-02T10:44:58.354Z,100509.58
2022-09-02T10:48:01.568Z,100501.88
2022-09-02T10:50:57.401Z,100491.77
2022-09-02T10:54:11.100Z,100494.12
2022-09-02T10:57:11.458Z,100480.97
2022-09-02T11:00:10.836Z,100470.54
2022-09-02T11:03:14.467Z,100472.60
2022-09-02T11:06:13.577Z,100471.42
2022-09-02T11:09:14.233Z,100465.11
2022-09-02T11:12:16.681Z,100461.57
2022-09-02T11:15:20.348Z,100466.42
2022-09-02T11:18:19.592Z,100459.37
2022-09-02T11:21:31.683Z,100455.85
2022-09-02T11:24:32.520Z,100448.28
2022-09-02T11:27:43.024Z,100443.63
2022-09-02T11:30:45.479Z,100449.59
2022-09-02T11:33:47.734Z,100435.40
2022-09-02T11:36:44.509Z,100437.25
2022-09-02T11:39:54.021Z,100426.87
2022-09-02T11:43:04.995Z,100423.64
2022-09-02T11:46:23.952Z,100432.59
2022-09-02T11:49:56.029Z,100439.14
2022-09-02T11:53:01.791Z,100436.14
2022-09-02T11:55:58.726Z,100432.31
2022-09-02T11:58:52.699Z,100430.42
2022-09-02T12:01:52.243Z,100426.87
2022-09-02T12:05:01.487Z,100434.76
2022-09-02T12:07:54.192Z,100438.04
2022-09-02T12:11:05.011Z,100433.19
2022-09-02T12:14:01.739Z,100430.55
2022-09-02T12:17:05.827Z,100433.58
2022-09-02T12:19:58.367Z,100426.80
2022-09-02T12:22:50.450Z,100416.00
2022-09-02T12:25:50.066Z,100418.52
2022-09-02T12:28:44.353Z,100416.98
2022-09-02T12:31:44.643Z,100408.91
2022-09-02T12:35:08.194Z,100413.31
2022-09-02T12:38:25.355Z,100400.59
2022-09-02T12:41:27.892Z,100394.12
2022-09-02T12:44:39.805Z,100384.14
2022-09-02T12:47:39.751Z,100377.09
2022-09-02T12:50:52.064Z,100382.02
2022-09-02T12:53:51.524Z,100370.91
2022-09-02T12:56:51.677Z,100364.95
2022-09-02T12:59:46.028Z,100366.64
2022-09-02T13:02:55.475Z,100369.16
2022-09-02T13:05:59.597Z,100359.66
2022-09-02T13:09:21.734Z,100360.30
2022-09-02T13:15:55.628Z,100350.32
2022-09-02T13:19:21.998Z,100354.41
2022-09-02T13:22:56.436Z,100349.36
2022-09-02T13:26:05.867Z,100348.59
2022-09-02T13:29:34.557Z,100360.94
2022-09-02T13:32:28.644Z,100369.42
2022-09-02T13:35:26.226Z,100366.25
2022-09-02T13:38:24.442Z,100374.45
2022-09-02T13:41:31.259Z,100377.22
2022-09-02T13:44:26.847Z,100388.96
2022-09-02T13:47:21.553Z,100388.71
2022-09-02T13:50:17.693Z,100395.02
2022-09-02T13:56:30.950Z,100406.22
2022-09-02T13:59:37.958Z,100407.11
2022-09-02T14:02:32.628Z,100403.97
2022-09-02T14:05:27.599Z,100408.16
2022-09-02T14:08:23.147Z,100407.71
2022-09-02T14:11:19.130Z,100409.67
2022-09-02T14:14:14.956Z,100419.47
2022-09-02T14:17:24.395Z,100426.31
2022-09-02T14:20:27.097Z,100435.03
2022-09-02T14:23:19.938Z,100449.96
2022-09-02T14:26:12.226Z,100457.87
2022-09-02T14:29:06.667Z,100476.59
2022-09-02T14:32:15.962Z,100480.41
2022-09-02T14:35:23.538Z,100488.55
2022-09-02T14:38:26.524Z,100500.49
2022-09-02T14:41:24.609Z,100507.55
2022-09-02T14:44:23.155Z,100520.02
2022-09-02T14:47:20.704Z,100517.60
2022-09-02T14:50:17.979Z,100525.70
2022-09-02T14:53:12.034Z,100514.88
2022-09-02T14:56:03.939Z,100514.06
2022-09-02T14:58:57.384Z,100520.56
2022-09-02T15:01:51.918Z,100522.73
2022-09-02T15:04:44.651Z,100520.58
2022-09-02T15:07:37.119Z,100500.84
2022-09-02T15:10:30.376Z,100493.52
2022-09-02T15:13:32.605Z,100494.06
2022-09-02T15:16:25.080Z,100487.81
2022-09-02T15:19:17.656Z,100485.63
2022-09-02T15:22:11.165Z,100473.16
2022-09-02T15:25:04.833Z,100460.95
2022-09-02T15:27:57.683Z,100451.41
2022-09-02T15:30:50.575Z,100441.05
2022-09-02T15:33:43.647Z,100444.75
2022-09-02T15:36:35.771Z,100453.08
2022-09-02T15:39:26.231Z,100450.56
2022-09-02T15:42:19.691Z,100441.61
2022-09-02T15:45:13.167Z,100457.20
2022-09-02T15:48:07.215Z,100448.81
2022-09-02T15:50:59.154Z,100452.02
2022-09-02T15:53:50.649Z,100456.03
2022-09-02T15:56:44.735Z,100446.27
2022-09-02T15:59:37.873Z,100452.88
2022-09-02T16:02:30.327Z,100452.78
2022-09-02T16:05:25.426Z,100443.86
2022-09-02T16:08:17.767Z,100439.22
2022-09-02T16:11:12.588Z,100438.61
2022-09-02T16:14:04.693Z,100428.30
2022-09-02T16:16:57.576Z,100438.79
2022-09-02T16:19:49.576Z,100447.38
2022-09-02T16:22:42.212Z,100465.69
2022-09-02T16:25:34.255Z,100465.92
2022-09-02T16:28:24.647Z,100468.56
2022-09-02T16:31:20.239Z,100472.78
2022-09-02T16:34:13.598Z,100477.87
2022-09-02T16:37:06.272Z,100475.92
2022-09-02T16:39:59.254Z,100472.88
2022-09-02T16:42:52.006Z,100467.07
2022-09-02T16:45:43.474Z,100469.97
2022-09-02T16:48:35.934Z,100466.38
2022-09-02T16:51:30.274Z,100465.45
2022-09-02T16:54:30.774Z,100466.12
2022-09-02T16:57:24.107Z,100471.66
2022-09-02T17:00:16.655Z,100469.97
2022-09-02T17:03:11.115Z,100468.03
2022-09-02T17:06:03.706Z,100469.59
2022-09-02T17:08:55.924Z,100480.28
2022-09-02T17:11:48.526Z,100473.77
2022-09-02T17:14:40.709Z,100476.03
2022-09-02T17:17:33.622Z,100471.41
2022-09-02T17:20:26.309Z,100478.57
2022-09-02T17:23:18.421Z,100469.13
2022-09-02T17:26:08.836Z,100456.17
2022-09-02T17:29:01.423Z,100451.75
2022-09-02T17:31:53.420Z,100462.42
2022-09-02T17:34:46.234Z,100462.56
2022-09-02T17:37:38.600Z,100460.63
2022-09-02T17:40:48.042Z,100469.48
2022-09-02T17:43:39.967Z,100478.88
2022-09-02T17:46:32.721Z,100481.22
2022-09-02T17:49:25.514Z,100486.28
2022-09-02T17:52:21.088Z,100490.50
2022-09-02T17:55:14.115Z,100490.16
2022-09-02T17:58:17.436Z,100496.02
2022-09-02T18:01:14.780Z,100494.39
2022-09-02T18:04:22.391Z,100501.65
2022-09-02T18:07:24.254Z,100504.81
2022-09-02T18:10:17.717Z,100508.56
2022-09-02T18:13:13.848Z,100501.78
2022-09-02T18:16:20.904Z,100508.47
2022-09-02T18:19:29.655Z,100507.06
2022-09-02T18:22:39.748Z,100509.75
2022-09-02T18:25:57.265Z,100517.48
2022-09-02T18:28:56.666Z,100517.13
2022-09-02T18:32:01.887Z,100519.50
2022-09-02T18:35:03.981Z,100523.47
2022-09-02T18:38:07.042Z,100521.51
2022-09-02T18:41:17.301Z,100527.94
2022-09-02T18:44:20.370Z,100531.67
2022-09-02T18:47:18.978Z,100528.16
2022-09-02T18:50:32.029Z,100530.52
2022-09-02T18:53:30.282Z,100533.43
2022-09-02T18:56:25.775Z,100540.33
2022-09-02T18:59:25.973Z,100544.55
2022-09-02T19:02:29.517Z,100544.80
2022-09-02T19:05:25.666Z,100538.02
2022-09-02T19:08:34.677Z,100527.75
2022-09-02T19:11:27.557Z,100530.10
2022-09-02T19:14:28.257Z,100528.69
2022-09-02T19:17:20.101Z,100528.37
2022-09-02T19:20:24.513Z,100526.13
2022-09-02T19:23:17.565Z,100529.50
2022-09-02T19:26:10.217Z,100528.12
2022-09-02T19:29:05.137Z,100535.12
2022-09-02T19:31:57.934Z,100532.07
2022-09-02T19:34:50.956Z,100539.33
2022-09-02T19:37:44.979Z,100532.32
2022-09-02T19:40:37.634Z,100529.86
2022-09-02T19:43:29.343Z,100531.96
2022-09-02T19:49:31.915Z,100533.84
2022-09-02T19:55:22.778Z,100525.80
2022-09-02T19:58:15.003Z,100534.89
2022-09-02T20:01:08.308Z,100534.06
2022-09-02T20:04:00.721Z,100537.80
2022-09-02T20:06:51.427Z,100536.41
2022-09-02T20:09:49.814Z,100547.37
2022-09-02T20:12:42.456Z,100543.63
2022-09-02T20:15:37.542Z,100549.83
2022-09-02T20:18:29.911Z,100558.47
2022-09-02T20:21:27.543Z,100553.31
2022-09-02T20:24:25.973Z,100558.35
2022-09-02T20:27:30.265Z,100552.16
2022-09-02T20:30:31.079Z,100546.20
2022-09-02T20:33:26.621Z,100542.47
2022-09-02T20:36:28.278Z,100540.25
2022-09-02T20:39:40.469Z,100539.45
2022-09-02T20:42:57.355Z,100538.87
2022-09-02T20:45:56.889Z,100518.45
2022-09-02T20:49:03.986Z,100510.63
2022-09-02T20:52:03.770Z,100515.19
2022-09-02T20:55:03.615Z,100518.92
2022-09-02T20:58:20.294Z,100526.61
2022-09-02T21:01:17.691Z,100524.97
2022-09-02T21:04:28.656Z,100524.97
2022-09-02T21:07:24.597Z,100530.80
2022-09-02T21:10:27.054Z,100533.73
2022-09-02T21:13:29.940Z,100543.42
2022-09-02T21:16:34.535Z,100551.09
2022-09-02T21:19:38.174Z,100557.52
2022-09-02T21:22:36.348Z,100559.86
2022-09-02T21:25:36.404Z,100571.39
2022-09-02T21:28:36.129Z,100581.31
2022-09-02T21:31:34.843Z,100582.36
2022-09-02T21:34:30.455Z,100573.02
2022-09-02T21:37:24.680Z,100552.86
2022-09-02T21:43:52.027Z,100517.50
2022-09-02T21:47:01.788Z,100525.77
2022-09-02T21:50:06.100Z,100526.55
2022-09-02T21:53:27.748Z,100516.34
2022-09-02T21:56:41.738Z,100526.93
2022-09-02T21:59:54.606Z,100531.11
2022-09-02T22:02:59.195Z,100535.50
2022-09-02T22:06:00.380Z,100526.74
2022-09-02T22:09:02.038Z,100532.80
2022-09-02T22:12:01.639Z,100537.56
2022-09-02T22:15:02.278Z,100532.42
2022-09-02T22:18:00.384Z,100528.55
2022-09-02T22:20:54.511Z,100530.64
2022-09-02T22:23:46.904Z,100534.61
2022-09-02T22:26:40.562Z,100531.34
2022-09-02T22:29:39.437Z,100540.41
2022-09-02T22:32:37.654Z,100536.70
2022-09-02T22:35:34.763Z,100534.81
2022-09-02T22:38:30.672Z,100532.14
2022-09-02T22:41:27.449Z,100538.53
2022-09-02T22:44:24.148Z,100540.41
2022-09-02T22:47:35.047Z,100533.19
2022-09-02T22:50:54.929Z,100533.19
2022-09-02T22:53:48.226Z,100539.38
2022-09-02T22:56:43.803Z,100536.91
2022-09-02T22:59:48.956Z,100537.36
2022-09-02T23:02:49.476Z,100537.80
2022-09-02T23:05:53.495Z,100542.36
2022-09-02T23:08:49.135Z,100535.81
2022-09-02T23:11:51.786Z,100538.95
2022-09-02T23:14:50.768Z,100528.44
2022-09-02T23:17:58.855Z,100524.96
2022-09-02T23:21:01.678Z,100519.61
2022-09-02T23:24:04.766Z,100517.14
2022-09-02T23:27:07.035Z,100516.55
2022-09-02T23:29:59.915Z,100513.87
2022-09-02T23:33:15.272Z,100515.95
2022-09-02T23:36:16.220Z,100504.89
2022-09-02T23:39:31.930Z,100504.30
2022-09-02T23:42:26.128Z,100500.20
2022-09-02T23:45:23.959Z,100496.92
2022-09-02T23:48:29.289Z,100492.02
2022-09-02T23:51:33.811Z,100490.84
2022-09-02T23:54:50.667Z,100486.52
2022-09-02T23:58:00.683Z,100489.64
